Flight Track Log - Related Links

Times and Time Zones

All times are in EDT time to prevent confusion due to time zone crossing. See the N42HN flight status page for this flight to view local times or setup timezone preferences in your user account.

Time Position Orientation Groundspeed Altitude Reporting Facility
EDT Latitude Longitude Course Direction KTS MPH feet Rate Location/Type
Fri 11:55:55 AM 39.0833 -84.4167 207° Southwest 171 197 1,400  Level Cincinnati TRACON
Fri 11:56:49 AM 39.0333 -84.4500 207° Southwest 225 259 2,500 611 Climbing Cincinnati TRACON
Fri 11:57:43 AM 38.9833 -84.4500 180° South 230 265 2,500 1,158 Level Cincinnati TRACON
Fri 11:58:43 AM 38.9167 -84.4333 169° South 234 269 4,700 2,640 Climbing Cincinnati TRACON
Fri 11:59:23 AM 38.8678 -84.4311 178° South 269 310 6,900 3,118 Climbing Indianapolis Center
Fri 12:00:25 PM 38.7889 -84.4150 171° South 282 325 10,000 2,732 Climbing Indianapolis Center
Fri 12:01:26 PM 38.7028 -84.3989 172° South 304 350 12,500 2,439 Climbing Indianapolis Center
Fri 12:02:28 PM 38.6061 -84.3803 171° South 345 397 15,000 2,613 Climbing Indianapolis Center
Fri 12:03:30 PM 38.4919 -84.3592 172° South 354 407 17,900 2,565 Climbing Indianapolis Center
Fri 12:04:32 PM 38.3897 -84.3383 171° South 366 421 20,300 2,032 Climbing Indianapolis Center
Fri 12:05:34 PM 38.2839 -84.3208 173° South 379 436 22,100 1,268 Climbing Indianapolis Center
Fri 12:06:35 PM 38.1703 -84.3022 173° South 403 464 22,900 1,561 Climbing Indianapolis Center
Fri 12:07:37 PM 38.0531 -84.2764 170° South 422 486 25,300 2,112 Climbing Indianapolis Center
Fri 12:08:40 PM 37.9411 -84.2594 173° South 410 472 27,300 1,742 Climbing Indianapolis Center
Fri 12:09:41 PM 37.8094 -84.2328 171° South 410 472 28,900 1,268 Climbing Indianapolis Center
Fri 12:10:43 PM 37.6931 -84.2122 172° South 421 484 29,900 532 Climbing Indianapolis Center
Fri 12:11:45 PM 37.5711 -84.1900 172° South 439 505 30,000 48 Climbing Indianapolis Center
Fri 12:12:47 PM 37.4467 -84.1658 171° South 450 518 30,000  Level Indianapolis Center
Fri 12:13:49 PM 37.3231 -84.1450 172° South 449 517 30,000  Level Indianapolis Center
Fri 12:14:51 PM 37.1842 -84.1197 172° South 435 501 30,000  Level Indianapolis Center
Fri 12:15:53 PM 37.0664 -84.0983 172° South 430 495 30,000  Level Indianapolis Center
Fri 12:16:55 PM 36.9506 -84.0792 172° South 423 487 30,000  Level Indianapolis Center
Fri 12:17:57 PM 36.8364 -84.0592 172° South 417 480 30,000  Level Indianapolis Center
Fri 12:18:58 PM 36.7203 -84.0389 172° South 418 481 30,000  Level Indianapolis Center
Fri 12:20:00 PM 36.5858 -84.0142 172° South 417 480 30,000  Level Indianapolis Center
Fri 12:21:02 PM 36.4731 -83.9944 172° South 415 478 30,000  Level Indianapolis Center
Fri 12:22:04 PM 36.3564 -83.9750 172° South 420 483 30,000  Level Indianapolis Center
Fri 12:23:06 PM 36.2381 -83.9544 172° South 424 488 30,000 -96 Level Indianapolis Center
Fri 12:24:09 PM 36.1181 -83.9322 171° South 431 496 29,800 -1,030 Descending Indianapolis Center
Fri 12:24:45 PM 36.0417 -83.9206 173° South 429 494 28,300 -2,063 Descending Atlanta Center
Fri 12:25:45 PM 35.9164 -83.9003 173° South 443 510 26,500 -1,750 Descending Atlanta Center
Fri 12:26:45 PM 35.7911 -83.8722 170° South 450 518 24,800 -1,400 Descending Atlanta Center
Fri 12:27:45 PM 35.6658 -83.8469 171° South 455 524 23,700 -1,500 Descending Atlanta Center
Fri 12:28:45 PM 35.5386 -83.8192 170° South 460 529 21,800 -1,350 Descending Atlanta Center
Fri 12:29:45 PM 35.4156 -83.7942 171° South 465 535 21,000 -400 Descending Atlanta Center
Fri 12:30:45 PM 35.2903 -83.7742 173° South 465 535 21,000  Level Atlanta Center
Fri 12:31:45 PM 35.1714 -83.7922 187° South 444 511 21,000  Level Atlanta Center
Fri 12:32:45 PM 35.0525 -83.8103 187° South 444 511 21,000  Level Atlanta Center
Fri 12:33:45 PM 34.9189 -83.8286 186° South 444 511 21,000 -950 Level Atlanta Center
Fri 12:34:45 PM 34.8083 -83.8439 186° South 444 511 19,100 -2,300 Descending Atlanta Center
Fri 12:35:45 PM 34.6769 -83.8644 187° South 450 518 16,400 -2,950 Descending Atlanta Center
Fri 12:36:45 PM 34.5581 -83.8800 186° South 441 507 13,200 -2,750 Descending Atlanta Center
Fri 12:37:45 PM 34.4558 -83.8953 187° South 401 461 10,900 -1,950 Descending Atlanta Center
Fri 12:38:45 PM 34.3703 -83.9081 187° South 352 405 9,300 -1,850 Descending Atlanta Center
Fri 12:39:45 PM 34.2889 -83.9181 186° South 308 354 7,200 -1,650 Descending Atlanta Center
Fri 12:40:45 PM 34.2178 -83.9483 199° South 288 331 6,000 -800 Descending Atlanta Center
Fri 12:41:45 PM 34.1594 -83.9961 214° Southwest 260 299 5,600 -600 Descending Atlanta Center
Fri 12:42:25 PM 34.1167 -84.0333 216° Southwest 251 289 5,000 -442 Descending Atlanta TRACON
Fri 12:43:20 PM 34.0667 -84.0667 209° Southwest 235 270 4,900 -835 Descending Atlanta TRACON
Fri 12:44:20 PM 34.0333 -84.1333 239° Southwest 244 281 3,400 -912 Descending Atlanta TRACON
Fri 12:45:25 PM 33.9667 -84.1833 212° Southwest 239 275 3,000 -200 Descending Atlanta TRACON
Fri 12:46:20 PM 33.9333 -84.1500 140° Southeast 194 223 3,000  Level Atlanta TRACON
Fri 12:47:25 PM 33.9333 -84.1000 90° East 151 174 3,000 -95 Level Atlanta TRACON
Fri 12:48:26 PM 33.9333 -84.0500 90° East 145 167 2,800 -595 Descending Atlanta TRACON
Fri 12:49:26 PM 33.9500 -84.0167 59° Northeast 138 159 1,800 -1,000 Descending Atlanta TRACON
Fri 12:51:00 PM 33.9667 -83.9500 180° South  Level FlightAware Approximate
Fri 12:58:00 PM 33.9781 -83.9624 180° South  Level Estimated

Login

Don't have an account? Register now (free) for customized features, flight alerts, and more!